createdAt,value
2023-03-12T00:00:17.538Z,100.00
2023-03-12T00:02:44.329Z,100.00
2023-03-12T00:05:11.570Z,100.00
2023-03-12T00:07:39.543Z,100.00
2023-03-12T00:10:07.997Z,100.00
2023-03-12T00:12:34.990Z,100.00
2023-03-12T00:15:02.032Z,100.00
2023-03-12T00:17:30.384Z,100.00
2023-03-12T00:19:57.497Z,100.00
2023-03-12T00:22:25.928Z,100.00
2023-03-12T00:24:55.127Z,100.00
2023-03-12T00:27:22.905Z,100.00
2023-03-12T00:29:50.285Z,100.00
2023-03-12T00:32:17.643Z,100.00
2023-03-12T00:34:44.465Z,100.00
2023-03-12T00:37:11.306Z,100.00
2023-03-12T00:39:38.079Z,100.00
2023-03-12T00:42:05.225Z,100.00
2023-03-12T00:44:32.137Z,100.00
2023-03-12T00:46:59.038Z,100.00
2023-03-12T00:49:25.965Z,100.00
2023-03-12T00:51:54.246Z,100.00
2023-03-12T00:54:21.850Z,100.00
2023-03-12T00:56:49.173Z,100.00
2023-03-12T00:59:16.689Z,100.00
2023-03-12T01:01:44.120Z,100.00
2023-03-12T01:04:12.311Z,100.00
2023-03-12T01:06:39.183Z,100.00
2023-03-12T01:09:09.214Z,100.00
2023-03-12T01:11:37.693Z,100.00
2023-03-12T01:14:06.939Z,100.00
2023-03-12T01:16:34.250Z,100.00
2023-03-12T01:19:02.373Z,100.00
2023-03-12T01:21:30.622Z,100.00
2023-03-12T01:23:57.517Z,100.00
2023-03-12T01:26:24.833Z,100.00
2023-03-12T01:28:51.638Z,100.00
2023-03-12T01:31:19.455Z,100.00
2023-03-12T01:33:51.909Z,100.00
2023-03-12T01:36:26.736Z,100.00
2023-03-12T01:39:00.113Z,100.00
2023-03-12T01:41:32.946Z,100.00
2023-03-12T01:44:03.870Z,100.00
2023-03-12T01:46:39.728Z,100.00
2023-03-12T01:49:10.852Z,100.00
2023-03-12T01:51:51.968Z,100.00
2023-03-12T01:54:46.868Z,100.00
2023-03-12T01:57:29.074Z,100.00
2023-03-12T02:00:14.274Z,100.00
2023-03-12T02:02:43.822Z,100.00
2023-03-12T02:05:38.575Z,100.00
2023-03-12T02:08:06.087Z,100.00
2023-03-12T02:10:32.915Z,100.00
2023-03-12T02:13:00.001Z,100.00
2023-03-12T02:15:27.939Z,100.00
2023-03-12T02:17:54.974Z,100.00
2023-03-12T02:20:47.455Z,100.00
2023-03-12T02:23:33.738Z,100.00
2023-03-12T02:26:02.577Z,100.00
2023-03-12T02:28:30.175Z,100.00
2023-03-12T02:31:03.744Z,100.00
2023-03-12T02:33:30.754Z,100.00
2023-03-12T02:35:57.856Z,100.00
2023-03-12T02:38:36.765Z,100.00
2023-03-12T02:41:20.739Z,100.00
2023-03-12T02:44:13.243Z,100.00
2023-03-12T02:46:44.515Z,100.00
2023-03-12T02:49:13.460Z,100.00
2023-03-12T02:51:42.729Z,100.00
2023-03-12T02:54:10.671Z,100.00
2023-03-12T02:56:38.179Z,100.00
2023-03-12T02:59:06.457Z,100.00
2023-03-12T03:01:36.470Z,100.00
2023-03-12T03:04:05.954Z,100.00
2023-03-12T03:06:32.902Z,100.00
2023-03-12T03:08:59.909Z,100.00
2023-03-12T03:11:26.902Z,100.00
2023-03-12T03:13:55.230Z,100.00
2023-03-12T03:16:22.928Z,100.00
2023-03-12T03:18:50.107Z,100.00
2023-03-12T03:21:18.039Z,100.00
2023-03-12T03:23:47.306Z,100.00
2023-03-12T03:26:16.258Z,100.00
2023-03-12T03:28:45.825Z,100.00
2023-03-12T03:31:13.026Z,100.00
2023-03-12T03:33:40.876Z,100.00
2023-03-12T03:36:09.602Z,100.00
2023-03-12T03:38:36.869Z,100.00
2023-03-12T03:41:04.230Z,100.00
2023-03-12T03:43:31.089Z,100.00
2023-03-12T03:46:05.065Z,100.00
2023-03-12T03:48:32.522Z,100.00
2023-03-12T03:51:05.152Z,100.00
2023-03-12T03:53:32.576Z,100.00
2023-03-12T03:55:59.401Z,100.00
2023-03-12T03:58:26.305Z,100.00
2023-03-12T04:00:54.724Z,100.00
2023-03-12T04:03:21.507Z,100.00
2023-03-12T04:05:58.845Z,100.00
2023-03-12T04:08:26.146Z,100.00
2023-03-12T04:10:53.601Z,100.00
2023-03-12T04:13:20.890Z,100.00
2023-03-12T04:15:53.791Z,100.00
2023-03-12T04:18:20.827Z,100.00
2023-03-12T04:20:47.966Z,100.00
2023-03-12T04:23:14.846Z,100.00
2023-03-12T04:25:41.652Z,100.00
2023-03-12T04:28:08.520Z,100.00
2023-03-12T04:30:38.374Z,100.00
2023-03-12T04:33:08.394Z,100.00
2023-03-12T04:35:35.290Z,100.00
2023-03-12T04:38:03.469Z,100.00
2023-03-12T04:40:30.757Z,100.00
2023-03-12T04:42:57.552Z,100.00
2023-03-12T04:45:24.377Z,100.00
2023-03-12T04:47:51.206Z,100.00
2023-03-12T04:50:18.366Z,100.00
2023-03-12T04:52:45.335Z,100.00
2023-03-12T04:55:12.269Z,100.00
2023-03-12T04:57:39.061Z,100.00
2023-03-12T05:00:13.638Z,100.00
2023-03-12T05:02:41.922Z,100.00
2023-03-12T05:05:11.145Z,100.00
2023-03-12T05:07:37.901Z,100.00
2023-03-12T05:10:05.301Z,100.00
2023-03-12T05:12:32.071Z,100.00
2023-03-12T05:14:58.876Z,100.00
2023-03-12T05:17:26.006Z,100.00
2023-03-12T05:19:52.888Z,100.00
2023-03-12T05:22:19.743Z,100.00
2023-03-12T05:24:46.544Z,100.00
2023-03-12T05:27:13.448Z,100.00
2023-03-12T05:29:40.242Z,100.00
2023-03-12T05:32:07.786Z,100.00
2023-03-12T05:34:35.385Z,100.00
2023-03-12T05:37:02.202Z,100.00
2023-03-12T05:39:29.016Z,100.00
2023-03-12T05:41:57.362Z,100.00
2023-03-12T05:44:25.324Z,100.00
2023-03-12T05:46:52.804Z,100.00
2023-03-12T05:49:21.510Z,100.00
2023-03-12T05:51:50.172Z,100.00
2023-03-12T05:54:18.322Z,100.00
2023-03-12T05:56:45.217Z,100.00
2023-03-12T05:59:12.145Z,100.00
2023-03-12T06:01:39.927Z,100.00
2023-03-12T06:04:06.942Z,100.00
2023-03-12T06:06:36.180Z,100.00
2023-03-12T06:09:05.192Z,100.00
2023-03-12T06:11:34.153Z,100.00
2023-03-12T06:14:01.348Z,100.00
2023-03-12T06:16:29.734Z,100.00
2023-03-12T06:18:59.870Z,100.00
2023-03-12T06:21:31.178Z,100.00
2023-03-12T06:24:02.158Z,100.00
2023-03-12T06:26:29.212Z,100.00
2023-03-12T06:28:56.505Z,100.00
2023-03-12T06:31:24.412Z,100.00
2023-03-12T06:33:52.100Z,100.00
2023-03-12T06:36:18.894Z,100.00
2023-03-12T06:38:45.694Z,100.00
2023-03-12T06:41:16.487Z,100.00
2023-03-12T06:43:44.482Z,100.00
2023-03-12T06:46:18.562Z,100.00
2023-03-12T06:48:46.730Z,100.00
2023-03-12T06:51:16.603Z,100.00
2023-03-12T06:53:45.279Z,100.00
2023-03-12T06:56:13.079Z,100.00
2023-03-12T06:58:40.352Z,100.00
2023-03-12T07:01:08.164Z,100.00
2023-03-12T07:03:35.194Z,100.00
2023-03-12T07:06:02.301Z,100.00
2023-03-12T07:08:32.503Z,100.00
2023-03-12T07:11:03.720Z,100.00
2023-03-12T07:13:31.016Z,100.00
2023-03-12T07:15:58.195Z,100.00
2023-03-12T07:18:25.113Z,100.00
2023-03-12T07:20:52.674Z,100.00
2023-03-12T07:23:20.093Z,100.00
2023-03-12T07:25:48.095Z,100.00
2023-03-12T07:28:16.635Z,100.00
2023-03-12T07:30:43.521Z,100.00
2023-03-12T07:33:12.981Z,100.00
2023-03-12T07:35:40.545Z,100.00
2023-03-12T07:38:08.752Z,100.00
2023-03-12T07:40:36.411Z,100.00
2023-03-12T07:43:07.049Z,100.00
2023-03-12T07:45:33.904Z,100.00
2023-03-12T07:48:00.694Z,100.00
2023-03-12T07:50:27.603Z,100.00
2023-03-12T07:52:54.484Z,100.00
2023-03-12T07:55:21.418Z,100.00
2023-03-12T07:57:49.189Z,100.00
2023-03-12T08:00:17.557Z,100.00
2023-03-12T08:02:45.472Z,100.00
2023-03-12T08:05:12.603Z,100.00
2023-03-12T08:07:39.445Z,100.00
2023-03-12T08:10:10.614Z,100.00
2023-03-12T08:12:37.796Z,100.00
2023-03-12T08:15:08.459Z,100.00
2023-03-12T08:17:35.797Z,100.00
2023-03-12T08:20:02.948Z,100.00
2023-03-12T08:22:29.765Z,100.00
2023-03-12T08:24:56.580Z,100.00
2023-03-12T08:27:23.471Z,100.00
2023-03-12T08:29:50.362Z,100.00
2023-03-12T08:32:17.518Z,100.00
2023-03-12T08:34:44.339Z,100.00
2023-03-12T08:37:11.182Z,100.00
2023-03-12T08:39:38.040Z,100.00
2023-03-12T08:42:05.771Z,98.02
2023-03-12T08:44:32.544Z,97.79
2023-03-12T08:46:59.713Z,97.68
2023-03-12T08:49:26.721Z,97.84
2023-03-12T08:51:53.745Z,98.39
2023-03-12T08:54:21.749Z,98.28
2023-03-12T08:56:52.586Z,97.01
2023-03-12T08:59:20.845Z,95.60
2023-03-12T09:01:48.151Z,96.01
2023-03-12T09:04:15.387Z,95.24
2023-03-12T09:06:42.936Z,93.73
2023-03-12T09:09:09.841Z,94.89
2023-03-12T09:11:39.852Z,95.34
2023-03-12T09:14:46.169Z,94.95
2023-03-12T09:16:54.873Z,94.71
2023-03-12T09:19:21.725Z,95.00
2023-03-12T09:21:48.977Z,95.28
2023-03-12T09:24:15.810Z,95.48
2023-03-12T09:26:42.637Z,94.80
2023-03-12T09:29:09.558Z,94.10
2023-03-12T09:31:36.683Z,94.59
2023-03-12T09:34:04.867Z,94.80
2023-03-12T09:36:32.481Z,94.50
2023-03-12T09:39:00.281Z,94.72
2023-03-12T09:41:31.934Z,95.18
2023-03-12T09:44:05.038Z,94.83
2023-03-12T09:46:45.657Z,94.48
2023-03-12T09:49:23.769Z,94.54
2023-03-12T09:51:56.168Z,94.90
2023-03-12T09:54:58.809Z,93.52
2023-03-12T09:57:30.020Z,94.01
2023-03-12T09:59:57.875Z,93.95
2023-03-12T10:02:46.213Z,94.81
2023-03-12T10:05:44.454Z,94.44
2023-03-12T10:08:36.298Z,93.17
2023-03-12T10:11:21.041Z,91.91
2023-03-12T10:14:24.421Z,89.78
2023-03-12T10:17:29.063Z,90.30
2023-03-12T10:20:26.445Z,90.52
2023-03-12T10:23:11.469Z,90.34
2023-03-12T10:25:46.956Z,90.18
2023-03-12T10:28:19.772Z,90.99
2023-03-12T10:30:54.678Z,91.33
2023-03-12T10:33:28.468Z,90.50
2023-03-12T10:35:55.837Z,90.49
2023-03-12T10:38:30.395Z,90.39
2023-03-12T10:40:57.198Z,89.66
2023-03-12T10:43:24.341Z,89.69
2023-03-12T10:46:11.487Z,89.59
2023-03-12T10:48:38.545Z,88.61
2023-03-12T10:51:09.697Z,85.50
2023-03-12T10:53:48.003Z,86.91
2023-03-12T10:56:19.265Z,87.21
2023-03-12T10:58:52.406Z,87.97
2023-03-12T11:01:22.623Z,88.19
2023-03-12T11:03:51.548Z,86.34
2023-03-12T11:06:29.038Z,85.24
2023-03-12T11:09:16.351Z,85.12
2023-03-12T11:11:47.704Z,85.31
2023-03-12T11:14:23.522Z,86.12
2023-03-12T11:16:52.181Z,82.88
2023-03-12T11:19:31.443Z,81.43
2023-03-12T11:22:16.108Z,80.41
2023-03-12T11:24:58.938Z,79.02
2023-03-12T11:27:57.229Z,79.34
2023-03-12T11:30:32.750Z,79.96
2023-03-12T11:33:02.289Z,79.25
2023-03-12T11:36:15.539Z,77.77
2023-03-12T11:39:00.994Z,77.16
2023-03-12T11:41:27.644Z,75.07
2023-03-12T11:44:05.114Z,76.02
2023-03-12T11:46:55.768Z,75.85
2023-03-12T11:49:40.636Z,76.87
2023-03-12T11:52:31.447Z,77.60
2023-03-12T11:55:21.122Z,74.91
2023-03-12T11:58:06.119Z,74.39
2023-03-12T12:00:49.588Z,74.34
2023-03-12T12:03:35.595Z,75.08
2023-03-12T12:06:48.144Z,75.46
2023-03-12T12:09:43.882Z,74.63
2023-03-12T12:12:17.165Z,74.31
2023-03-12T12:15:26.351Z,74.23
2023-03-12T12:17:57.880Z,74.25
2023-03-12T12:20:49.080Z,74.21
2023-03-12T12:23:17.609Z,73.61
2023-03-12T12:26:13.289Z,74.32
2023-03-12T12:29:17.189Z,72.93
2023-03-12T12:32:04.510Z,71.88
2023-03-12T12:34:52.218Z,73.07
2023-03-12T12:37:41.050Z,72.37
2023-03-12T12:40:27.823Z,70.74
2023-03-12T12:43:29.189Z,71.36
2023-03-12T12:46:02.778Z,72.06
2023-03-12T12:48:40.639Z,71.89
2023-03-12T12:51:10.763Z,71.57
2023-03-12T12:54:03.226Z,71.62
2023-03-12T12:56:53.575Z,73.83
2023-03-12T12:59:34.425Z,73.25
2023-03-12T13:02:03.953Z,73.51
2023-03-12T13:04:38.534Z,73.76
2023-03-12T13:07:14.429Z,74.25
2023-03-12T13:09:48.055Z,74.01
2023-03-12T13:12:57.239Z,74.00
2023-03-12T13:15:29.739Z,72.51
2023-03-12T13:17:56.524Z,73.25
2023-03-12T13:20:33.138Z,73.99
2023-03-12T13:23:32.028Z,72.60
2023-03-12T13:26:08.493Z,73.20
2023-03-12T13:29:13.096Z,73.01
2023-03-12T13:31:42.630Z,74.16
2023-03-12T13:34:18.591Z,73.27
2023-03-12T13:36:52.200Z,73.49
2023-03-12T13:39:34.228Z,73.10
2023-03-12T13:42:22.650Z,73.99
2023-03-12T13:44:51.081Z,74.10
2023-03-12T13:47:36.654Z,73.81
2023-03-12T13:50:14.551Z,74.66
2023-03-12T13:52:48.557Z,74.35
2023-03-12T13:55:34.325Z,75.20
2023-03-12T13:58:23.595Z,74.82
2023-03-12T14:00:55.591Z,75.54
2023-03-12T14:03:29.819Z,75.83
2023-03-12T14:06:05.844Z,76.52
2023-03-12T14:08:47.431Z,76.01
2023-03-12T14:11:38.431Z,76.17
2023-03-12T14:14:26.565Z,76.49
2023-03-12T14:16:58.414Z,76.96
2023-03-12T14:19:31.795Z,77.65
2023-03-12T14:22:04.811Z,77.58
2023-03-12T14:24:36.532Z,77.88
2023-03-12T14:27:07.407Z,77.79
2023-03-12T14:29:43.357Z,77.80
2023-03-12T14:32:20.289Z,77.19
2023-03-12T14:34:54.553Z,77.99
2023-03-12T14:37:40.829Z,78.00
2023-03-12T14:40:25.012Z,77.46
2023-03-12T14:42:52.092Z,77.61
2023-03-12T14:45:23.686Z,78.41
2023-03-12T14:47:57.777Z,78.55
2023-03-12T14:50:31.100Z,79.10
2023-03-12T14:53:25.350Z,79.15
2023-03-12T14:56:13.166Z,79.76
2023-03-12T14:58:49.463Z,79.88
2023-03-12T15:01:30.345Z,80.17
2023-03-12T15:04:03.836Z,80.70
2023-03-12T15:06:38.771Z,80.88
2023-03-12T15:09:07.881Z,81.35
2023-03-12T15:11:37.426Z,81.31
2023-03-12T15:14:14.940Z,81.55
2023-03-12T15:16:44.332Z,82.71
2023-03-12T15:19:20.978Z,83.27
2023-03-12T15:21:48.167Z,83.44
2023-03-12T15:24:15.341Z,83.58
2023-03-12T15:26:43.972Z,83.80
2023-03-12T15:29:29.102Z,83.80
2023-03-12T15:31:58.707Z,84.13
2023-03-12T15:34:38.172Z,84.52
2023-03-12T15:37:20.353Z,84.22
2023-03-12T15:39:53.045Z,83.81
2023-03-12T15:42:24.990Z,84.56
2023-03-12T15:44:59.098Z,84.52
2023-03-12T15:47:30.009Z,83.25
2023-03-12T15:50:02.340Z,83.11
2023-03-12T15:52:33.364Z,82.95
2023-03-12T15:55:12.292Z,83.21
2023-03-12T15:57:52.082Z,83.04
2023-03-12T16:00:43.304Z,82.92
2023-03-12T16:03:19.712Z,83.08
2023-03-12T16:05:49.314Z,82.73
2023-03-12T16:08:21.784Z,83.10
2023-03-12T16:10:50.708Z,82.42
2023-03-12T16:13:21.302Z,82.41
2023-03-12T16:15:49.086Z,82.64
2023-03-12T16:18:19.549Z,83.04
2023-03-12T16:20:47.206Z,83.13
2023-03-12T16:23:15.405Z,83.10
2023-03-12T16:25:52.361Z,83.70
2023-03-12T16:28:21.265Z,83.64
2023-03-12T16:30:48.974Z,84.40
2023-03-12T16:33:21.007Z,84.74
2023-03-12T16:35:48.477Z,85.02
2023-03-12T16:38:15.575Z,85.23
2023-03-12T16:40:51.128Z,85.71
2023-03-12T16:43:28.216Z,86.01
2023-03-12T16:45:56.887Z,86.01
2023-03-12T16:48:25.005Z,86.38
2023-03-12T16:50:55.892Z,86.55
2023-03-12T16:53:23.856Z,86.70
2023-03-12T16:55:58.748Z,86.78
2023-03-12T16:58:27.155Z,86.86
2023-03-12T17:00:55.904Z,87.51
2023-03-12T17:03:22.643Z,87.94
2023-03-12T17:05:49.625Z,87.72
2023-03-12T17:08:16.395Z,87.92
2023-03-12T17:10:43.664Z,88.22
2023-03-12T17:13:28.896Z,87.92
2023-03-12T17:15:57.073Z,88.30
2023-03-12T17:18:24.021Z,88.62
2023-03-12T17:20:52.080Z,88.88
2023-03-12T17:23:19.917Z,88.93
2023-03-12T17:25:46.941Z,88.98
2023-03-12T17:28:15.601Z,89.13
2023-03-12T17:30:43.483Z,89.38
2023-03-12T17:33:17.872Z,89.45
2023-03-12T17:35:45.928Z,89.35
2023-03-12T17:38:13.524Z,89.69
2023-03-12T17:40:44.474Z,90.08
2023-03-12T17:43:12.525Z,90.15
2023-03-12T17:45:40.005Z,90.70
2023-03-12T17:48:07.232Z,90.96
2023-03-12T17:50:34.706Z,91.41
2023-03-12T17:53:01.526Z,91.66
2023-03-12T17:55:28.372Z,92.39
2023-03-12T17:57:55.417Z,92.62
2023-03-12T18:00:23.223Z,92.83
2023-03-12T18:02:50.925Z,93.95
2023-03-12T18:05:17.903Z,94.32
2023-03-12T18:07:48.438Z,94.47
2023-03-12T18:10:15.790Z,95.16
2023-03-12T18:12:42.925Z,96.29
2023-03-12T18:15:13.343Z,96.02
2023-03-12T18:17:41.716Z,96.76
2023-03-12T18:20:10.046Z,97.08
2023-03-12T18:22:39.213Z,97.98
2023-03-12T18:25:07.923Z,99.46
2023-03-12T18:27:35.004Z,99.05
2023-03-12T18:30:01.847Z,99.72
2023-03-12T18:32:28.818Z,100.00
2023-03-12T18:34:56.212Z,100.00
2023-03-12T18:37:23.142Z,100.00
2023-03-12T18:39:49.937Z,100.00
2023-03-12T18:42:16.730Z,100.00
2023-03-12T18:44:44.120Z,100.00
2023-03-12T18:47:10.968Z,100.00
2023-03-12T18:49:37.892Z,100.00
2023-03-12T18:52:05.016Z,100.00
2023-03-12T18:54:33.757Z,100.00
2023-03-12T18:57:01.268Z,100.00
2023-03-12T18:59:29.894Z,100.00
2023-03-12T19:01:58.347Z,100.00
2023-03-12T19:04:26.019Z,100.00
2023-03-12T19:06:53.035Z,100.00
2023-03-12T19:09:20.096Z,100.00
2023-03-12T19:11:48.320Z,100.00
2023-03-12T19:14:15.663Z,100.00
2023-03-12T19:16:42.521Z,100.00
2023-03-12T19:19:09.627Z,100.00
2023-03-12T19:21:36.400Z,100.00
2023-03-12T19:24:03.246Z,100.00
2023-03-12T19:26:30.157Z,100.00
2023-03-12T19:28:56.916Z,100.00
2023-03-12T19:31:24.017Z,100.00
2023-03-12T19:33:51.661Z,100.00
2023-03-12T19:36:18.481Z,100.00
2023-03-12T19:38:45.284Z,100.00
2023-03-12T19:41:12.175Z,100.00
2023-03-12T19:43:40.184Z,100.00
2023-03-12T19:46:07.236Z,100.00
2023-03-12T19:48:34.612Z,100.00
2023-03-12T19:51:06.851Z,100.00
2023-03-12T19:53:33.649Z,100.00
2023-03-12T19:56:00.637Z,100.00
2023-03-12T19:58:28.921Z,100.00
2023-03-12T20:00:59.666Z,100.00
2023-03-12T20:03:28.231Z,100.00
2023-03-12T20:05:55.138Z,100.00
2023-03-12T20:08:22.708Z,100.00
2023-03-12T20:10:49.962Z,100.00
2023-03-12T20:13:17.920Z,100.00
2023-03-12T20:15:47.023Z,100.00
2023-03-12T20:18:15.693Z,100.00
2023-03-12T20:20:43.117Z,100.00
2023-03-12T20:23:09.973Z,100.00
2023-03-12T20:25:43.818Z,100.00
2023-03-12T20:28:11.122Z,100.00
2023-03-12T20:30:41.440Z,100.00
2023-03-12T20:33:09.093Z,100.00
2023-03-12T20:35:36.711Z,100.00
2023-03-12T20:38:04.516Z,100.00
2023-03-12T20:40:31.720Z,100.00
2023-03-12T20:42:58.540Z,100.00
2023-03-12T20:45:25.646Z,100.00
2023-03-12T20:47:53.719Z,100.00
2023-03-12T20:50:21.153Z,100.00
2023-03-12T20:52:48.417Z,100.00
2023-03-12T20:55:15.256Z,100.00
2023-03-12T20:57:42.142Z,100.00
2023-03-12T21:00:09.873Z,100.00
2023-03-12T21:02:36.806Z,100.00
2023-03-12T21:05:03.925Z,100.00
2023-03-12T21:07:30.692Z,100.00
2023-03-12T21:09:57.880Z,100.00
2023-03-12T21:12:24.766Z,100.00
2023-03-12T21:14:51.530Z,100.00
2023-03-12T21:17:18.312Z,100.00
2023-03-12T21:19:46.659Z,100.00
2023-03-12T21:22:13.570Z,100.00
2023-03-12T21:24:40.862Z,100.00
2023-03-12T21:27:11.525Z,100.00
2023-03-12T21:29:38.461Z,100.00
2023-03-12T21:32:05.619Z,100.00
2023-03-12T21:34:32.769Z,100.00
2023-03-12T21:36:59.604Z,100.00
2023-03-12T21:39:27.339Z,100.00
2023-03-12T21:41:54.206Z,100.00
2023-03-12T21:44:21.028Z,100.00
2023-03-12T21:46:47.860Z,100.00
2023-03-12T21:49:18.119Z,100.00
2023-03-12T21:51:45.707Z,100.00
2023-03-12T21:54:12.777Z,100.00
2023-03-12T21:56:41.879Z,100.00
2023-03-12T21:59:08.722Z,100.00
2023-03-12T22:01:35.568Z,100.00
2023-03-12T22:04:03.577Z,100.00
2023-03-12T22:06:30.457Z,100.00
2023-03-12T22:08:57.298Z,100.00
2023-03-12T22:11:24.511Z,100.00
2023-03-12T22:13:51.265Z,100.00
2023-03-12T22:16:18.272Z,100.00
2023-03-12T22:18:46.733Z,100.00
2023-03-12T22:21:20.333Z,100.00
2023-03-12T22:23:51.163Z,100.00
2023-03-12T22:26:22.344Z,100.00
2023-03-12T22:28:59.707Z,100.00
2023-03-12T22:31:29.189Z,100.00
2023-03-12T22:33:57.369Z,100.00
2023-03-12T22:36:24.480Z,100.00
2023-03-12T22:38:52.092Z,100.00
2023-03-12T22:41:27.335Z,100.00
2023-03-12T22:43:56.765Z,100.00
2023-03-12T22:46:26.030Z,100.00
2023-03-12T22:48:56.526Z,100.00
2023-03-12T22:51:25.119Z,100.00
2023-03-12T22:53:53.412Z,100.00
2023-03-12T22:56:20.925Z,100.00
2023-03-12T22:58:48.402Z,100.00
2023-03-12T23:01:18.781Z,100.00
2023-03-12T23:03:46.807Z,100.00
2023-03-12T23:06:26.365Z,100.00
2023-03-12T23:08:55.205Z,100.00
2023-03-12T23:11:25.476Z,100.00
2023-03-12T23:13:53.647Z,100.00
2023-03-12T23:16:24.624Z,100.00
2023-03-12T23:18:52.360Z,100.00
2023-03-12T23:21:22.385Z,100.00
2023-03-12T23:23:50.722Z,100.00
2023-03-12T23:26:21.994Z,100.00
2023-03-12T23:28:51.275Z,100.00
2023-03-12T23:31:18.393Z,100.00
2023-03-12T23:33:45.296Z,100.00
2023-03-12T23:36:19.224Z,100.00
2023-03-12T23:38:48.110Z,100.00
2023-03-12T23:41:17.269Z,100.00
2023-03-12T23:43:45.084Z,100.00
2023-03-12T23:46:13.616Z,100.00
2023-03-12T23:48:41.408Z,100.00
2023-03-12T23:51:23.397Z,100.00
2023-03-12T23:53:54.956Z,100.00
2023-03-12T23:56:27.108Z,100.00
2023-03-12T23:58:54.572Z,100.00
